createdAt,value
2022-08-03T00:00:00.293Z,17.6
2022-08-03T00:10:00.228Z,17.4
2022-08-03T00:20:00.238Z,17.2
2022-08-03T00:30:00.581Z,17.2
2022-08-03T00:40:00.244Z,17.1
2022-08-03T00:50:00.232Z,17.0
2022-08-03T01:00:00.284Z,16.8
2022-08-03T01:10:00.303Z,16.6
2022-08-03T01:20:00.259Z,16.6
2022-08-03T01:30:00.235Z,16.6
2022-08-03T01:40:00.399Z,16.6
2022-08-03T01:50:00.228Z,16.6
2022-08-03T02:00:00.242Z,16.5
2022-08-03T02:10:00.238Z,16.4
2022-08-03T02:20:00.297Z,16.4
2022-08-03T02:30:00.227Z,16.3
2022-08-03T02:40:00.227Z,16.2
2022-08-03T02:50:00.293Z,16.2
2022-08-03T03:00:00.247Z,16.1
2022-08-03T03:10:00.227Z,16.1
2022-08-03T03:20:00.236Z,16.0
2022-08-03T03:30:00.268Z,15.9
2022-08-03T03:40:00.220Z,15.8
2022-08-03T03:50:00.245Z,15.7
2022-08-03T04:00:00.266Z,15.6
2022-08-03T04:10:00.986Z,15.6
2022-08-03T04:20:00.211Z,15.7
2022-08-03T04:30:00.266Z,15.8
2022-08-03T04:40:00.225Z,15.8
2022-08-03T04:50:00.220Z,16.0
2022-08-03T05:00:02.902Z,16.1
2022-08-03T05:10:01.645Z,16.2
2022-08-03T05:20:00.227Z,16.4
2022-08-03T05:30:26.646Z,16.6
2022-08-03T05:40:00.258Z,16.8
2022-08-03T05:50:00.265Z,17.2
2022-08-03T06:00:00.258Z,17.7
2022-08-03T06:10:34.824Z,18.2
2022-08-03T06:20:00.267Z,19.0
2022-08-03T06:30:00.332Z,19.6
2022-08-03T06:40:00.242Z,20.1
2022-08-03T06:50:13.125Z,20.7
2022-08-03T07:00:06.714Z,21.5
2022-08-03T07:10:00.230Z,22.4
2022-08-03T07:20:00.256Z,23.1
2022-08-03T07:30:00.304Z,23.7
2022-08-03T07:40:00.246Z,24.2
2022-08-03T07:50:00.260Z,24.7
2022-08-03T08:00:02.085Z,25.1
2022-08-03T08:10:00.259Z,25.4
2022-08-03T08:20:00.247Z,25.6
2022-08-03T08:30:04.829Z,26.0
2022-08-03T08:40:00.247Z,26.3
2022-08-03T08:50:09.579Z,26.5
2022-08-03T09:00:00.243Z,26.5
2022-08-03T09:10:05.258Z,26.6
2022-08-03T09:20:02.802Z,26.7
2022-08-03T09:30:00.284Z,27.0
2022-08-03T09:40:00.224Z,27.4
2022-08-03T09:50:00.233Z,27.5
2022-08-03T10:00:03.174Z,27.7
2022-08-03T10:10:28.796Z,28.0
2022-08-03T10:20:00.242Z,28.2
2022-08-03T10:30:00.303Z,28.4
2022-08-03T10:40:00.241Z,28.2
2022-08-03T10:50:00.244Z,28.0
2022-08-03T11:00:00.248Z,27.8
2022-08-03T11:10:00.234Z,27.7
2022-08-03T11:20:00.243Z,27.7
2022-08-03T11:40:02.405Z,27.5
2022-08-03T11:50:00.441Z,27.8
2022-08-03T12:00:00.255Z,27.8
2022-08-03T12:10:00.245Z,28.1
2022-08-03T12:20:00.231Z,28.1
2022-08-03T12:30:00.249Z,28.0
2022-08-03T12:40:00.794Z,27.8
2022-08-03T12:50:00.401Z,27.8
2022-08-03T13:00:00.231Z,27.8
2022-08-03T13:10:02.754Z,27.6
2022-08-03T13:20:00.247Z,27.4
2022-08-03T13:30:00.243Z,27.7
2022-08-03T13:40:02.354Z,27.9
2022-08-03T13:50:02.400Z,28.1
2022-08-03T14:00:00.251Z,28.2
2022-08-03T14:10:00.237Z,28.2
2022-08-03T14:20:00.235Z,28.2
2022-08-03T14:30:00.336Z,28.2
2022-08-03T14:40:00.863Z,28.6
2022-08-03T14:50:35.215Z,28.7
2022-08-03T15:00:00.343Z,28.8
2022-08-03T15:10:00.248Z,29.1
2022-08-03T15:20:24.322Z,29.1
2022-08-03T15:30:06.591Z,29.4
2022-08-03T15:40:01.067Z,29.5
2022-08-03T15:50:00.257Z,29.7
2022-08-03T16:00:00.254Z,29.8
2022-08-03T16:10:00.222Z,29.9
2022-08-03T16:20:00.234Z,29.8
2022-08-03T16:30:00.236Z,29.7
2022-08-03T16:40:00.280Z,29.8
2022-08-03T16:50:00.617Z,29.8
2022-08-03T17:00:00.256Z,30.0
2022-08-03T17:10:00.295Z,29.6
2022-08-03T17:20:00.223Z,29.1
2022-08-03T17:30:00.236Z,28.7
2022-08-03T17:40:00.339Z,28.1
2022-08-03T17:50:00.233Z,27.5
2022-08-03T18:00:00.228Z,27.0
2022-08-03T18:10:03.012Z,26.6
2022-08-03T18:20:01.542Z,26.1
2022-08-03T18:30:00.237Z,25.6
2022-08-03T18:40:00.693Z,25.2
2022-08-03T18:50:00.247Z,24.7
2022-08-03T19:00:00.229Z,24.3
2022-08-03T19:10:00.233Z,23.9
2022-08-03T19:20:01.394Z,23.5
2022-08-03T19:30:02.974Z,23.2
2022-08-03T19:40:00.292Z,22.8
2022-08-03T19:50:06.345Z,22.6
2022-08-03T20:00:03.277Z,22.2
2022-08-03T20:10:01.260Z,21.8
2022-08-03T20:20:00.226Z,21.5
2022-08-03T20:30:06.157Z,21.2
2022-08-03T20:40:00.280Z,20.9
2022-08-03T20:50:00.216Z,20.6
2022-08-03T21:00:00.217Z,20.4
2022-08-03T21:10:00.810Z,20.2
2022-08-03T21:20:00.228Z,20.0
2022-08-03T21:30:00.259Z,19.9
2022-08-03T21:40:00.392Z,19.7
2022-08-03T21:50:05.938Z,19.6
2022-08-03T22:00:00.284Z,19.4
2022-08-03T22:10:00.271Z,19.3
2022-08-03T22:20:00.222Z,19.2
2022-08-03T22:30:00.267Z,19.0
2022-08-03T22:40:00.253Z,18.9
2022-08-03T22:50:31.103Z,18.6
2022-08-03T23:00:00.280Z,18.5
2022-08-03T23:10:00.219Z,18.4
2022-08-03T23:20:00.215Z,18.3
2022-08-03T23:30:00.234Z,18.2
2022-08-03T23:40:00.217Z,18.1
2022-08-03T23:50:00.231Z,18.0
